Terminal Aerodrome Forecast
Issued by NWS Boise, ID

Home | Current Version | Previous Version | Text Only | Print | Product List | Glossary On
Versions: 1 2 3 4 5 6 7 8 9 10 11 12 13
000
FTUS45 KBOI 311120
TAFBOI
TAF
KBOI 311120Z 3112/0112 VRB06KT P6SM FEW250
     FM312100 31010KT P6SM FEW250
     FM010500 14005KT P6SM FEW250=

USA.gov is the U.S. government's official web portal to all federal, state and local government web resources and services.